Time;durP1;ratioP1;P1;durP2;ratioP2;P2;SDS_P1;SDS_P2;PMS_P1;PMS_P2;Temp;Humidity;BMP_temperature;BMP_pressure;BME280_temperature;BME280_humidity;BME280_pressure;Samples;Min_cycle;Max_cycle;Signal;HPM_P1;HPM_P2
2021/10/11 00:01:21;;;;;;;1.55;0.90;;;;;;;;;;5034513;28;20032;-46
2021/10/11 00:03:47;;;;;;;0.50;0.50;;;;;;;;;;5034577;28;20037;-46
2021/10/11 00:06:12;;;;;;;1.58;1.00;;;;;;;;;;5034410;28;20029;-46
2021/10/11 00:08:38;;;;;;;1.10;0.80;;;;;;;;;;5034840;28;20033;-46
2021/10/11 00:11:03;;;;;;;2.42;0.93;;;;;;;;;;5034301;28;20057;-46
2021/10/11 00:13:29;;;;;;;1.60;0.80;;;;;;;;;;5032969;28;20037;-46
2021/10/11 00:15:54;;;;;;;1.00;0.70;;;;;;;;;;5034292;28;20029;-47
2021/10/11 00:18:19;;;;;;;1.45;1.10;;;;;;;;;;5034357;28;20068;-46
2021/10/11 00:20:45;;;;;;;1.30;0.95;;;;;;;;;;5034494;28;20044;-46
2021/10/11 00:23:11;;;;;;;0.90;0.90;;;;;;;;;;5034087;28;20029;-46
2021/10/11 00:25:37;;;;;;;1.55;0.70;;;;;;;;;;5034170;28;20018;-46
2021/10/11 00:28:03;;;;;;;2.08;1.17;;;;;;;;;;5033908;28;20084;-46
2021/10/11 00:30:28;;;;;;;2.58;1.15;;;;;;;;;;5033885;28;20053;-46
2021/10/11 00:32:54;;;;;;;1.30;0.73;;;;;;;;;;5033858;28;20111;-47
2021/10/11 00:35:19;;;;;;;0.90;0.65;;;;;;;;;;5033591;28;20045;-46
2021/10/11 00:37:44;;;;;;;0.95;0.73;;;;;;;;;;5033902;28;20099;-46
2021/10/11 00:40:10;;;;;;;1.10;0.90;;;;;;;;;;5034063;28;20037;-46
2021/10/11 00:42:36;;;;;;;1.10;0.93;;;;;;;;;;5033600;28;20380;-46
2021/10/11 00:45:02;;;;;;;1.08;0.75;;;;;;;;;;5033760;28;20028;-46
2021/10/11 00:47:27;;;;;;;1.50;0.90;;;;;;;;;;5033431;28;20431;-46
2021/10/11 00:49:53;;;;;;;1.05;0.95;;;;;;;;;;5033655;28;20021;-47
2021/10/11 00:52:18;;;;;;;0.60;0.52;;;;;;;;;;5033582;28;20044;-46
2021/10/11 00:54:44;;;;;;;0.90;0.70;;;;;;;;;;5033414;28;20093;-46
2021/10/11 00:57:09;;;;;;;1.25;0.60;;;;;;;;;;5033571;28;20030;-46
2021/10/11 00:59:35;;;;;;;1.35;0.82;;;;;;;;;;5032479;28;20022;-46
2021/10/11 01:02:02;;;;;;;1.33;0.80;;;;;;;;;;5032179;28;20487;-47
2021/10/11 01:04:28;;;;;;;1.42;0.85;;;;;;;;;;5033318;28;20020;-46
2021/10/11 01:06:53;;;;;;;0.85;0.60;;;;;;;;;;5033162;28;20144;-46
2021/10/11 01:09:18;;;;;;;1.65;0.70;;;;;;;;;;5033480;28;20021;-46
2021/10/11 01:11:49;;;;;;;2.75;0.93;;;;;;;;;;5033237;28;20029;-46
2021/10/11 01:14:15;;;;;;;0.85;0.65;;;;;;;;;;5033155;28;20029;-46
2021/10/11 01:16:41;;;;;;;1.38;0.80;;;;;;;;;;5033172;28;20022;-46
2021/10/11 01:19:06;;;;;;;0.70;0.70;;;;;;;;;;5033374;28;20030;-46
2021/10/11 01:21:31;;;;;;;1.80;0.70;;;;;;;;;;5032971;28;20051;-46
2021/10/11 01:23:57;;;;;;;1.17;0.90;;;;;;;;;;5033228;28;20025;-46
2021/10/11 01:26:22;;;;;;;2.95;0.50;;;;;;;;;;5032787;28;20052;-46
2021/10/11 01:28:48;;;;;;;2.88;1.08;;;;;;;;;;5032918;28;20396;-46
2021/10/11 01:31:14;;;;;;;1.08;0.80;;;;;;;;;;5032810;28;20079;-46
2021/10/11 01:33:39;;;;;;;1.67;0.93;;;;;;;;;;5032542;28;20081;-46
2021/10/11 01:36:05;;;;;;;1.13;0.75;;;;;;;;;;5032783;28;20438;-46
2021/10/11 01:38:30;;;;;;;1.55;0.95;;;;;;;;;;5032629;28;20053;-46
2021/10/11 01:40:55;;;;;;;1.33;0.68;;;;;;;;;;5032759;28;20048;-46
2021/10/11 01:43:21;;;;;;;1.60;0.75;;;;;;;;;;5032407;28;20111;-46
2021/10/11 01:45:47;;;;;;;1.13;0.57;;;;;;;;;;5032693;28;20021;-46
2021/10/11 01:48:13;;;;;;;1.08;0.65;;;;;;;;;;5032595;28;20029;-46
2021/10/11 01:50:38;;;;;;;0.82;0.80;;;;;;;;;;5031059;28;20543;-46
2021/10/11 01:53:04;;;;;;;1.80;1.42;;;;;;;;;;5032510;28;20112;-46
2021/10/11 01:55:29;;;;;;;0.88;0.60;;;;;;;;;;5032372;28;20024;-46
2021/10/11 01:57:55;;;;;;;2.95;0.57;;;;;;;;;;5032509;28;20116;-46
2021/10/11 02:00:20;;;;;;;0.77;0.68;;;;;;;;;;5032290;28;20526;-46
2021/10/11 02:02:45;;;;;;;1.15;0.70;;;;;;;;;;5032265;28;20033;-46
2021/10/11 02:05:11;;;;;;;1.55;0.60;;;;;;;;;;5032201;28;20025;-47
2021/10/11 02:07:36;;;;;;;0.60;0.40;;;;;;;;;;5032110;28;20073;-46
2021/10/11 02:10:03;;;;;;;1.15;0.60;;;;;;;;;;5031807;28;20013;-47
2021/10/11 02:12:28;;;;;;;1.23;0.90;;;;;;;;;;5032251;28;20037;-46
2021/10/11 02:14:54;;;;;;;2.28;0.90;;;;;;;;;;5032213;28;20032;-46
2021/10/11 02:17:19;;;;;;;0.93;0.60;;;;;;;;;;5032231;28;20112;-46
2021/10/11 02:19:45;;;;;;;2.78;1.02;;;;;;;;;;5031938;28;20045;-46
2021/10/11 02:22:10;;;;;;;0.80;0.80;;;;;;;;;;5032186;28;20083;-46
2021/10/11 02:24:36;;;;;;;1.27;0.85;;;;;;;;;;5031883;28;20017;-46
2021/10/11 02:27:01;;;;;;;0.70;0.50;;;;;;;;;;5031716;28;20100;-46
2021/10/11 02:29:28;;;;;;;0.95;0.73;;;;;;;;;;5031774;28;20371;-47
2021/10/11 02:31:53;;;;;;;2.17;0.80;;;;;;;;;;5031841;28;20025;-46
2021/10/11 02:34:19;;;;;;;0.77;0.60;;;;;;;;;;5031523;28;20099;-46
2021/10/11 02:36:44;;;;;;;1.90;0.80;;;;;;;;;;5030426;28;20064;-46
2021/10/11 02:39:10;;;;;;;1.02;0.70;;;;;;;;;;5031636;28;20498;-46
2021/10/11 02:41:36;;;;;;;1.42;0.70;;;;;;;;;;5031672;28;20041;-46
2021/10/11 02:44:01;;;;;;;1.15;0.93;;;;;;;;;;5031575;28;20021;-46
2021/10/11 02:46:27;;;;;;;1.75;0.82;;;;;;;;;;5031605;28;20581;-46
2021/10/11 02:48:52;;;;;;;1.15;0.60;;;;;;;;;;5031497;28;20132;-46
2021/10/11 02:51:18;;;;;;;0.82;0.50;;;;;;;;;;5031808;28;20033;-46
2021/10/11 02:53:48;;;;;;;1.58;0.65;;;;;;;;;;5031503;28;20091;-47
2021/10/11 02:56:14;;;;;;;0.70;0.68;;;;;;;;;;5031647;28;20051;-47
2021/10/11 02:58:39;;;;;;;2.13;0.70;;;;;;;;;;5031328;28;20761;-46
2021/10/11 03:01:05;;;;;;;0.77;0.70;;;;;;;;;;5031395;28;20037;-46
2021/10/11 03:03:30;;;;;;;2.15;0.52;;;;;;;;;;5031268;28;20086;-46
2021/10/11 03:05:55;;;;;;;1.17;0.63;;;;;;;;;;5031186;28;20405;-46
2021/10/11 03:08:21;;;;;;;0.60;0.45;;;;;;;;;;5031260;28;20100;-46
2021/10/11 03:10:46;;;;;;;1.10;0.63;;;;;;;;;;5031310;28;20108;-46
2021/10/11 03:13:11;;;;;;;1.08;0.63;;;;;;;;;;5031248;28;20100;-46
2021/10/11 03:15:37;;;;;;;0.68;0.60;;;;;;;;;;5031144;28;20096;-46
2021/10/11 03:18:02;;;;;;;0.60;0.60;;;;;;;;;;5031174;28;20022;-46
2021/10/11 03:20:27;;;;;;;0.82;0.73;;;;;;;;;;5031205;28;20018;-46
2021/10/11 03:22:53;;;;;;;1.67;0.90;;;;;;;;;;5033572;28;20120;-46
2021/10/11 03:25:18;;;;;;;1.80;0.65;;;;;;;;;;5035358;28;20026;-46
2021/10/11 03:27:44;;;;;;;0.60;0.45;;;;;;;;;;5034112;28;20056;-47
2021/10/11 03:30:09;;;;;;;1.80;0.98;;;;;;;;;;5035142;28;20032;-46
2021/10/11 03:32:35;;;;;;;3.53;0.95;;;;;;;;;;5035049;28;20017;-46
2021/10/11 03:35:00;;;;;;;0.60;0.60;;;;;;;;;;5034954;28;20462;-46
2021/10/11 03:37:25;;;;;;;1.48;0.70;;;;;;;;;;5034804;28;20060;-46
2021/10/11 03:39:51;;;;;;;1.52;0.88;;;;;;;;;;5034952;28;20059;-46
2021/10/11 03:42:16;;;;;;;6.30;0.93;;;;;;;;;;5035237;28;20074;-46
2021/10/11 03:44:42;;;;;;;2.03;0.80;;;;;;;;;;5034639;28;20480;-46
2021/10/11 03:47:07;;;;;;;1.52;0.75;;;;;;;;;;5034825;28;20392;-47
2021/10/11 03:49:33;;;;;;;1.27;1.00;;;;;;;;;;5034885;28;20171;-46
2021/10/11 03:51:58;;;;;;;0.47;0.47;;;;;;;;;;5034671;28;20391;-46
2021/10/11 03:54:23;;;;;;;0.60;0.60;;;;;;;;;;5034666;28;20033;-46
2021/10/11 03:56:49;;;;;;;2.58;0.63;;;;;;;;;;5034571;28;20428;-47
2021/10/11 03:59:14;;;;;;;1.48;0.45;;;;;;;;;;5034619;28;20021;-46
2021/10/11 04:01:40;;;;;;;0.43;0.43;;;;;;;;;;5034500;28;20017;-46
2021/10/11 04:04:07;;;;;;;0.55;0.55;;;;;;;;;;5034742;28;20033;-46
2021/10/11 04:06:32;;;;;;;0.75;0.68;;;;;;;;;;5034573;28;20400;-46
2021/10/11 04:08:59;;;;;;;0.93;0.60;;;;;;;;;;5034322;28;20152;-46
2021/10/11 04:11:25;;;;;;;1.55;0.95;;;;;;;;;;5033354;28;20017;-46
2021/10/11 04:13:50;;;;;;;1.30;0.75;;;;;;;;;;5034302;28;20492;-46
2021/10/11 04:16:16;;;;;;;2.45;0.60;;;;;;;;;;5034241;28;20124;-46
2021/10/11 04:18:41;;;;;;;2.90;0.73;;;;;;;;;;5034149;28;20045;-46
2021/10/11 04:21:07;;;;;;;1.08;0.98;;;;;;;;;;5034395;28;20032;-46
2021/10/11 04:23:32;;;;;;;0.88;0.70;;;;;;;;;;5034275;28;20479;-46
2021/10/11 04:25:58;;;;;;;1.23;0.80;;;;;;;;;;5034093;28;20075;-47
2021/10/11 04:28:24;;;;;;;1.77;0.70;;;;;;;;;;5034154;28;20447;-46
2021/10/11 04:30:49;;;;;;;1.48;0.70;;;;;;;;;;5034123;28;20017;-46
2021/10/11 04:33:15;;;;;;;0.80;0.70;;;;;;;;;;5033530;28;20029;-46
2021/10/11 04:35:41;;;;;;;1.40;0.60;;;;;;;;;;5033861;28;20030;-46
2021/10/11 04:38:07;;;;;;;0.77;0.73;;;;;;;;;;5034248;28;20104;-46
2021/10/11 04:40:33;;;;;;;0.90;0.70;;;;;;;;;;5033781;28;20179;-46
2021/10/11 04:42:59;;;;;;;1.08;0.63;;;;;;;;;;5033740;28;20531;-46
2021/10/11 04:45:31;;;;;;;1.48;0.73;;;;;;;;;;5033714;28;20152;-46
2021/10/11 04:47:57;;;;;;;1.48;0.60;;;;;;;;;;5033905;28;20049;-46
2021/10/11 04:50:22;;;;;;;3.10;0.93;;;;;;;;;;5033945;28;20072;-46
2021/10/11 04:52:48;;;;;;;4.30;1.02;;;;;;;;;;5033626;28;20511;-46
2021/10/11 04:55:13;;;;;;;1.08;0.77;;;;;;;;;;5033521;28;20089;-46
2021/10/11 04:57:39;;;;;;;0.85;0.60;;;;;;;;;;5033380;28;20080;-45
2021/10/11 05:00:04;;;;;;;0.95;0.77;;;;;;;;;;5033786;28;20021;-46
2021/10/11 05:02:30;;;;;;;1.63;0.90;;;;;;;;;;5033391;28;20499;-46
2021/10/11 05:04:55;;;;;;;2.35;1.17;;;;;;;;;;5033555;28;20017;-45
2021/10/11 05:07:20;;;;;;;1.35;0.85;;;;;;;;;;5032013;28;20124;-46
2021/10/11 05:09:46;;;;;;;1.02;0.80;;;;;;;;;;5033495;28;20018;-46
2021/10/11 05:12:11;;;;;;;1.45;0.60;;;;;;;;;;5033513;28;20549;-46
2021/10/11 05:14:37;;;;;;;1.95;0.68;;;;;;;;;;5033398;28;20014;-46
2021/10/11 05:17:02;;;;;;;0.95;0.75;;;;;;;;;;5033167;28;20041;-46
2021/10/11 05:19:28;;;;;;;0.60;0.52;;;;;;;;;;5033400;28;20018;-46
2021/10/11 05:21:54;;;;;;;0.95;0.68;;;;;;;;;;5033111;28;20040;-46
2021/10/11 05:24:20;;;;;;;0.47;0.43;;;;;;;;;;5033009;28;20041;-46
2021/10/11 05:26:45;;;;;;;0.80;0.50;;;;;;;;;;5032833;28;20045;-46
2021/10/11 05:29:11;;;;;;;0.73;0.50;;;;;;;;;;5032929;28;20025;-45
2021/10/11 05:31:37;;;;;;;0.98;0.60;;;;;;;;;;5032766;28;20029;-46
2021/10/11 05:34:03;;;;;;;1.02;0.82;;;;;;;;;;5032830;28;20055;-46
2021/10/11 05:36:29;;;;;;;1.02;0.73;;;;;;;;;;5032955;28;20037;-46
2021/10/11 05:38:54;;;;;;;0.50;0.50;;;;;;;;;;5032768;28;20104;-46
2021/10/11 05:41:20;;;;;;;0.82;0.40;;;;;;;;;;5032671;28;20037;-46
2021/10/11 05:43:45;;;;;;;0.75;0.68;;;;;;;;;;5032860;28;20013;-45
2021/10/11 05:46:10;;;;;;;0.55;0.50;;;;;;;;;;5031927;28;20572;-45
2021/10/11 05:48:36;;;;;;;0.65;0.50;;;;;;;;;;5031131;28;20029;-47
2021/10/11 05:51:01;;;;;;;0.73;0.65;;;;;;;;;;5032840;28;20061;-46
2021/10/11 05:53:27;;;;;;;0.70;0.60;;;;;;;;;;5032566;28;20056;-46
2021/10/11 05:55:52;;;;;;;0.57;0.50;;;;;;;;;;5032624;28;20476;-46
2021/10/11 05:58:17;;;;;;;1.08;0.43;;;;;;;;;;5032481;28;20404;-46
2021/10/11 06:00:43;;;;;;;1.00;0.43;;;;;;;;;;5032154;28;20022;-46
2021/10/11 06:03:09;;;;;;;1.40;0.77;;;;;;;;;;5032409;28;20017;-46
2021/10/11 06:05:35;;;;;;;1.23;0.77;;;;;;;;;;5032487;28;20397;-46
2021/10/11 06:08:00;;;;;;;0.80;0.60;;;;;;;;;;5032055;28;20038;-47
2021/10/11 06:10:26;;;;;;;0.85;0.73;;;;;;;;;;5032114;28;20109;-47
2021/10/11 06:12:52;;;;;;;0.60;0.60;;;;;;;;;;5032291;28;20026;-46
2021/10/11 06:15:18;;;;;;;1.10;1.00;;;;;;;;;;5032064;28;20035;-46
2021/10/11 06:17:43;;;;;;;1.17;0.80;;;;;;;;;;5032226;28;20021;-46
2021/10/11 06:20:09;;;;;;;1.10;0.57;;;;;;;;;;5031989;28;20075;-46
2021/10/11 06:22:35;;;;;;;0.65;0.65;;;;;;;;;;5032070;28;20361;-47
2021/10/11 06:25:00;;;;;;;0.73;0.60;;;;;;;;;;5031898;28;20036;-46
2021/10/11 06:27:27;;;;;;;1.25;0.65;;;;;;;;;;5031586;28;20037;-46
2021/10/11 06:29:53;;;;;;;0.52;0.52;;;;;;;;;;5030561;28;20091;-46
2021/10/11 06:32:19;;;;;;;0.77;0.60;;;;;;;;;;5031781;28;20022;-46
2021/10/11 06:34:44;;;;;;;1.13;0.82;;;;;;;;;;5031485;28;20056;-51
2021/10/11 06:37:09;;;;;;;1.02;0.50;;;;;;;;;;5031703;28;20082;-47
2021/10/11 06:39:35;;;;;;;1.13;0.70;;;;;;;;;;5031821;28;20104;-47
2021/10/11 06:42:00;;;;;;;0.75;0.68;;;;;;;;;;5031722;28;20491;-46
2021/10/11 06:44:26;;;;;;;1.23;1.02;;;;;;;;;;5031385;28;20400;-46
2021/10/11 06:46:51;;;;;;;0.32;0.30;;;;;;;;;;5031548;28;20034;-46
2021/10/11 06:49:16;;;;;;;0.90;0.40;;;;;;;;;;5031374;28;20040;-46
2021/10/11 06:51:42;;;;;;;0.90;0.63;;;;;;;;;;5031359;28;20022;-46
2021/10/11 06:54:07;;;;;;;1.38;1.08;;;;;;;;;;5031722;28;20116;-46
2021/10/11 06:56:33;;;;;;;0.80;0.80;;;;;;;;;;5030493;28;20017;-46
2021/10/11 06:58:58;;;;;;;0.75;0.43;;;;;;;;;;5031647;28;20476;-46
2021/10/11 07:01:24;;;;;;;1.98;0.93;;;;;;;;;;5031473;28;20088;-47
2021/10/11 07:03:49;;;;;;;1.75;0.80;;;;;;;;;;5031177;28;20496;-46
2021/10/11 07:06:20;;;;;;;1.67;0.73;;;;;;;;;;5031582;28;20075;-46
2021/10/11 07:08:45;;;;;;;3.40;0.73;;;;;;;;;;5031501;28;20099;-46
2021/10/11 07:11:11;;;;;;;1.67;0.77;;;;;;;;;;5031451;28;20427;-46
2021/10/11 07:13:36;;;;;;;1.42;0.75;;;;;;;;;;5031448;28;20468;-46
2021/10/11 07:16:05;;;;;;;1.15;0.95;;;;;;;;;;5031238;28;20579;-46
2021/10/11 07:18:31;;;;;;;3.75;0.98;;;;;;;;;;5031160;28;20253;-47
2021/10/11 07:20:56;;;;;;;4.72;2.17;;;;;;;;;;5031221;28;20018;-46
2021/10/11 07:23:22;;;;;;;6.15;1.85;;;;;;;;;;5031122;28;20075;-46
2021/10/11 07:25:47;;;;;;;7.00;1.90;;;;;;;;;;5031117;28;20452;-46
2021/10/11 07:28:13;;;;;;;5.30;1.63;;;;;;;;;;5030983;28;20036;-46
2021/10/11 07:30:38;;;;;;;3.47;1.90;;;;;;;;;;5031132;28;20018;-46
2021/10/11 07:33:06;;;;;;;7.25;1.52;;;;;;;;;;5031129;28;20057;-47
2021/10/11 07:35:32;;;;;;;5.65;1.20;;;;;;;;;;5031212;28;20034;-46
2021/10/11 07:37:58;;;;;;;4.45;1.38;;;;;;;;;;5031133;28;20503;-46
2021/10/11 07:40:23;;;;;;;1.67;0.85;;;;;;;;;;5031197;28;20053;-46
2021/10/11 07:42:49;;;;;;;3.78;1.30;;;;;;;;;;5030835;28;20557;-46
2021/10/11 07:45:14;;;;;;;2.45;1.23;;;;;;;;;;5031008;28;20030;-45
2021/10/11 07:47:40;;;;;;;2.20;1.20;;;;;;;;;;5030933;28;20124;-47
2021/10/11 07:50:05;;;;;;;1.98;1.00;;;;;;;;;;5031279;28;20354;-46
2021/10/11 07:52:31;;;;;;;1.88;0.88;;;;;;;;;;5030859;28;20674;-46
2021/10/11 07:54:56;;;;;;;4.20;0.93;;;;;;;;;;5030863;28;20025;-46
2021/10/11 07:57:21;;;;;;;4.90;1.15;;;;;;;;;;5030890;28;20109;-46
2021/10/11 07:59:47;;;;;;;2.80;1.17;;;;;;;;;;5030808;28;20028;-46
2021/10/11 08:02:12;;;;;;;2.65;1.08;;;;;;;;;;5030813;28;20514;-47
2021/10/11 08:04:38;;;;;;;1.83;0.80;;;;;;;;;;5029480;28;20025;-47
2021/10/11 08:07:03;;;;;;;4.07;1.33;;;;;;;;;;5030977;28;20073;-46
2021/10/11 08:09:28;;;;;;;1.98;1.27;;;;;;;;;;5033832;28;20456;-46
2021/10/11 08:11:54;;;;;;;2.70;1.40;;;;;;;;;;5032980;28;20041;-46
2021/10/11 08:14:19;;;;;;;2.53;0.80;;;;;;;;;;5034238;28;20024;-46
2021/10/11 08:16:45;;;;;;;1.63;1.15;;;;;;;;;;5034503;28;20025;-46
2021/10/11 08:19:11;;;;;;;2.85;1.00;;;;;;;;;;5034507;28;20029;-46
2021/10/11 08:21:37;;;;;;;1.45;0.88;;;;;;;;;;5034395;28;20025;-46
2021/10/11 08:24:04;;;;;;;2.65;1.30;;;;;;;;;;5034118;28;20025;-46
2021/10/11 08:26:30;;;;;;;6.50;1.15;;;;;;;;;;5033953;28;20045;-46
2021/10/11 08:28:56;;;;;;;2.15;1.13;;;;;;;;;;5034138;28;20046;-50
2021/10/11 08:31:22;;;;;;;2.13;1.02;;;;;;;;;;5034046;28;20098;-46
2021/10/11 08:33:47;;;;;;;3.40;1.58;;;;;;;;;;5033782;28;20060;-46
2021/10/11 08:36:16;;;;;;;4.18;1.25;;;;;;;;;;5032652;28;20079;-46
2021/10/11 08:38:41;;;;;;;6.22;2.00;;;;;;;;;;5033881;28;20847;-47
2021/10/11 08:41:08;;;;;;;4.55;1.50;;;;;;;;;;5033939;28;20034;-46
2021/10/11 08:43:36;;;;;;;4.40;1.75;;;;;;;;;;5033655;28;20048;-46
2021/10/11 08:46:02;;;;;;;2.88;1.30;;;;;;;;;;5033804;28;20546;-46
2021/10/11 08:48:29;;;;;;;1.92;1.02;;;;;;;;;;5033672;28;20108;-46
2021/10/11 08:50:55;;;;;;;3.28;1.10;;;;;;;;;;5033890;28;20037;-46
2021/10/11 08:53:21;;;;;;;1.80;1.00;;;;;;;;;;5033619;28;20029;-46
2021/10/11 08:55:46;;;;;;;1.13;0.88;;;;;;;;;;5033480;28;20037;-46
2021/10/11 08:58:12;;;;;;;4.65;1.27;;;;;;;;;;5033742;28;20026;-46
2021/10/11 09:00:38;;;;;;;2.35;1.02;;;;;;;;;;5033687;28;20048;-46
2021/10/11 09:03:04;;;;;;;3.20;1.00;;;;;;;;;;5033664;28;20025;-47
2021/10/11 09:05:36;;;;;;;1.35;1.10;;;;;;;;;;5033588;28;20029;-46
2021/10/11 09:08:05;;;;;;;1.38;0.73;;;;;;;;;;5033232;28;20053;-46
2021/10/11 09:10:32;;;;;;;1.40;0.95;;;;;;;;;;5033302;28;20480;-46
2021/10/11 09:12:58;;;;;;;2.20;1.73;;;;;;;;;;5033107;28;20384;-47
2021/10/11 09:15:28;;;;;;;1.27;0.90;;;;;;;;;;5033593;28;20111;-46
2021/10/11 09:17:57;;;;;;;1.65;0.88;;;;;;;;;;5033252;28;20510;-46
2021/10/11 09:20:24;;;;;;;2.58;1.05;;;;;;;;;;5032109;28;20017;-46
2021/10/11 09:22:51;;;;;;;1.48;0.95;;;;;;;;;;5033268;28;20065;-46
2021/10/11 09:25:17;;;;;;;1.35;0.70;;;;;;;;;;5033002;28;20018;-47
2021/10/11 09:27:43;;;;;;;2.63;1.27;;;;;;;;;;5032776;28;20046;-46
2021/10/11 09:30:12;;;;;;;1.10;0.93;;;;;;;;;;5032963;28;20025;-46
2021/10/11 09:32:37;;;;;;;5.60;1.33;;;;;;;;;;5032681;28;20029;-46
2021/10/11 09:35:10;;;;;;;4.70;1.15;;;;;;;;;;5032758;28;20053;-46
2021/10/11 09:37:37;;;;;;;1.40;1.13;;;;;;;;;;5032652;28;20029;-46
2021/10/11 09:40:02;;;;;;;4.10;1.13;;;;;;;;;;5032758;28;20021;-46
2021/10/11 09:42:29;;;;;;;1.70;1.10;;;;;;;;;;5032831;28;20045;-47
2021/10/11 09:44:55;;;;;;;2.45;1.40;;;;;;;;;;5032706;28;20010;-46
2021/10/11 09:50:19;;;;;;;2.30;1.10;;;;;;;;;;5027595;28;20060;-46
2021/10/11 09:52:45;;;;;;;1.52;1.35;;;;;;;;;;5032251;28;20476;-47
2021/10/11 09:55:11;;;;;;;3.85;1.17;;;;;;;;;;5032446;28;20427;-47
2021/10/11 09:57:36;;;;;;;1.20;0.90;;;;;;;;;;5032258;28;20024;-47
2021/10/11 10:00:05;;;;;;;1.88;1.10;;;;;;;;;;5032358;28;20029;-46
2021/10/11 10:02:38;;;;;;;2.65;1.30;;;;;;;;;;5032275;28;20472;-47
2021/10/11 10:05:05;;;;;;;3.50;1.33;;;;;;;;;;5032486;28;20032;-47
2021/10/11 10:07:33;;;;;;;2.08;1.27;;;;;;;;;;5032012;28;20635;-46
2021/10/11 10:10:02;;;;;;;1.65;1.00;;;;;;;;;;5032011;28;20542;-47
2021/10/11 10:12:28;;;;;;;2.42;1.38;;;;;;;;;;5032323;28;20032;-47
2021/10/11 10:14:58;;;;;;;2.88;1.00;;;;;;;;;;5032298;28;20029;-47
2021/10/11 10:17:28;;;;;;;1.70;1.20;;;;;;;;;;5031953;28;20030;-46
2021/10/11 10:20:02;;;;;;;2.40;1.10;;;;;;;;;;5032053;28;20030;-48
2021/10/11 10:22:28;;;;;;;5.55;1.25;;;;;;;;;;5032224;28;20078;-46
2021/10/11 10:25:02;;;;;;;2.47;1.40;;;;;;;;;;5031895;28;20022;-46
2021/10/11 10:27:33;;;;;;;2.05;1.10;;;;;;;;;;5032065;28;20119;-46
2021/10/11 10:29:59;;;;;;;2.40;1.35;;;;;;;;;;5031763;28;20029;-45
2021/10/11 10:32:24;;;;;;;2.00;0.82;;;;;;;;;;5031626;28;20030;-46
2021/10/11 14:28:02;;;;;;;2.58;1.48;;;;;;;;;;4919436;29;20486;-36
2021/10/11 16:00:24;;;;;;;3.90;1.50;;;;;;;;;;4937686;29;20032;-36
2021/10/11 16:02:53;;;;;;;;;;;;;;;;;;4937881;29;20031;-37
2021/10/11 16:05:18;;;;;;;2.65;1.33;;;;;;;;;;4920573;29;20296;-37
2021/10/11 16:07:44;;;;;;;3.53;1.73;;;;;;;;;;4937256;29;20126;-37
2021/10/11 16:10:10;;;;;;;4.10;1.30;;;;;;;;;;4937545;29;20034;-37
2021/10/11 16:12:38;;;;;;;5.45;1.50;;;;;;;;;;4937164;29;20036;-36
2021/10/11 16:15:05;;;;;;;3.65;1.48;;;;;;;;;;4937322;29;20102;-37
2021/10/11 16:17:30;;;;;;;5.13;1.70;;;;;;;;;;4937181;29;20063;-37
2021/10/11 16:19:56;;;;;;;2.38;1.70;;;;;;;;;;4937058;29;20043;-37
2021/10/11 16:22:21;;;;;;;2.47;1.98;;;;;;;;;;4937040;29;20028;-37
2021/10/11 16:24:47;;;;;;;4.60;1.70;;;;;;;;;;4937114;29;20020;-36
2021/10/11 16:27:12;;;;;;;3.40;1.70;;;;;;;;;;4936855;29;20541;-37
2021/10/11 16:29:38;;;;;;;3.22;1.42;;;;;;;;;;4936465;29;20027;-37
2021/10/11 16:32:05;;;;;;;1.63;1.50;;;;;;;;;;4921138;29;20080;-37
2021/10/11 16:34:30;;;;;;;3.90;1.67;;;;;;;;;;4917810;29;20032;-37
2021/10/11 16:36:56;;;;;;;4.03;1.75;;;;;;;;;;4917860;29;20043;-37
2021/10/11 16:39:21;;;;;;;3.72;1.60;;;;;;;;;;4917741;29;20471;-37
2021/10/11 16:41:47;;;;;;;2.75;1.50;;;;;;;;;;4917727;29;20031;-37
2021/10/11 16:44:13;;;;;;;3.35;1.73;;;;;;;;;;4917685;29;20020;-37
2021/10/11 16:46:39;;;;;;;1.80;1.50;;;;;;;;;;4917598;29;20035;-37
2021/10/11 16:49:04;;;;;;;4.00;1.40;;;;;;;;;;4917623;29;20036;-37
2021/10/11 16:51:30;;;;;;;2.05;1.52;;;;;;;;;;4916310;29;20506;-37
2021/10/11 16:56:28;;;;;;;3.92;2.00;;;;;;;;;;4917618;29;20031;-36
2021/10/11 16:58:53;;;;;;;2.47;1.38;;;;;;;;;;4917537;29;20023;-37
2021/10/11 17:01:19;;;;;;;2.90;1.40;;;;;;;;;;4917561;29;20080;-37
2021/10/11 17:03:45;;;;;;;2.50;1.70;;;;;;;;;;4917344;29;20394;-38
2021/10/11 17:06:10;;;;;;;3.22;1.83;;;;;;;;;;4917402;29;20088;-37
2021/10/11 17:08:37;;;;;;;1.73;1.50;;;;;;;;;;4917147;29;20036;-37
2021/10/11 17:11:03;;;;;;;3.67;1.83;;;;;;;;;;4917160;29;20080;-37
2021/10/11 17:13:28;;;;;;;4.80;1.20;;;;;;;;;;4917141;29;20032;-37
2021/10/11 17:15:54;;;;;;;1.67;1.30;;;;;;;;;;4917243;29;20046;-37
2021/10/11 17:18:20;;;;;;;2.75;2.08;;;;;;;;;;4917035;29;20043;-37
2021/10/11 17:20:45;;;;;;;4.00;1.80;;;;;;;;;;4917050;29;20036;-37
2021/10/11 17:23:11;;;;;;;8.98;2.28;;;;;;;;;;4916981;29;20020;-37
2021/10/11 17:25:36;;;;;;;3.08;1.80;;;;;;;;;;4916902;29;20123;-36
2021/10/11 17:28:02;;;;;;;7.53;2.00;;;;;;;;;;4917139;29;20119;-36
2021/10/11 17:30:27;;;;;;;2.35;1.65;;;;;;;;;;4916605;29;20395;-37
2021/10/11 17:32:53;;;;;;;5.25;1.33;;;;;;;;;;4916833;29;20040;-37
2021/10/11 17:35:20;;;;;;;2.35;1.85;;;;;;;;;;4916746;29;20040;-37
2021/10/11 17:37:45;;;;;;;3.47;1.70;;;;;;;;;;4916775;29;20028;-37
2021/10/11 17:40:11;;;;;;;8.48;1.67;;;;;;;;;;4916628;29;20388;-37
2021/10/11 17:42:37;;;;;;;2.60;2.00;;;;;;;;;;4916119;29;20450;-37
2021/10/11 17:45:06;;;;;;;1.60;1.50;;;;;;;;;;4915660;29;20067;-37
2021/10/11 17:47:31;;;;;;;2.45;1.42;;;;;;;;;;4916429;29;20083;-37
2021/10/11 17:49:57;;;;;;;5.13;2.17;;;;;;;;;;4916538;29;20491;-37
2021/10/11 17:52:23;;;;;;;2.75;1.60;;;;;;;;;;4915145;29;20027;-37
2021/10/11 17:54:48;;;;;;;3.05;1.52;;;;;;;;;;4915276;29;20092;-37
2021/10/11 17:57:14;;;;;;;2.35;1.48;;;;;;;;;;4916363;29;20024;-37
2021/10/11 17:59:40;;;;;;;2.38;1.33;;;;;;;;;;4916226;29;20028;-37
2021/10/11 18:02:05;;;;;;;3.50;1.38;;;;;;;;;;4916356;29;20024;-37
2021/10/11 18:04:31;;;;;;;2.22;1.80;;;;;;;;;;4916225;29;20032;-37
2021/10/11 18:06:57;;;;;;;3.47;2.08;;;;;;;;;;4916117;29;20027;-37
2021/10/11 18:09:24;;;;;;;4.70;2.20;;;;;;;;;;4916057;29;20054;-37
2021/10/11 18:11:49;;;;;;;3.75;1.30;;;;;;;;;;4916299;29;20355;-37
2021/10/11 18:14:16;;;;;;;2.53;1.67;;;;;;;;;;4916099;29;20039;-36
2021/10/11 18:16:42;;;;;;;3.63;1.95;;;;;;;;;;4916065;29;20020;-36
2021/10/11 18:19:07;;;;;;;2.53;2.15;;;;;;;;;;4916060;29;20539;-36
2021/10/11 18:21:33;;;;;;;3.13;2.03;;;;;;;;;;4915784;29;20055;-37
2021/10/11 18:23:59;;;;;;;4.25;2.25;;;;;;;;;;4916238;29;20044;-37
2021/10/11 18:26:25;;;;;;;2.70;1.90;;;;;;;;;;4915804;29;20404;-37
2021/10/11 18:28:50;;;;;;;8.02;1.77;;;;;;;;;;4915714;29;20032;-36
2021/10/11 18:31:16;;;;;;;3.78;2.20;;;;;;;;;;4915718;29;20459;-37
2021/10/11 18:33:41;;;;;;;3.50;1.48;;;;;;;;;;4915803;29;20051;-37
2021/10/11 18:36:07;;;;;;;3.00;2.15;;;;;;;;;;4914504;29;20028;-36
2021/10/11 18:38:34;;;;;;;4.65;1.83;;;;;;;;;;4915675;29;20042;-37
2021/10/11 18:41:00;;;;;;;6.18;2.30;;;;;;;;;;4915595;29;20498;-37
2021/10/11 18:43:27;;;;;;;3.65;1.85;;;;;;;;;;4915741;29;20060;-37
2021/10/11 18:45:52;;;;;;;2.05;1.55;;;;;;;;;;4915863;29;20542;-36
2021/10/11 18:48:18;;;;;;;2.83;2.03;;;;;;;;;;4915485;29;20491;-37
2021/10/11 18:50:43;;;;;;;4.53;1.90;;;;;;;;;;4915417;29;20019;-37
2021/10/11 18:53:09;;;;;;;2.95;2.13;;;;;;;;;;4915405;29;20027;-37
2021/10/11 18:55:35;;;;;;;4.65;2.03;;;;;;;;;;4915347;29;20027;-37
2021/10/11 18:58:01;;;;;;;3.88;1.92;;;;;;;;;;4915406;29;20036;-37
2021/10/11 19:00:26;;;;;;;5.18;2.05;;;;;;;;;;4915275;29;20020;-37
2021/10/11 19:02:52;;;;;;;7.68;1.98;;;;;;;;;;4915574;29;20044;-36
2021/10/11 19:05:19;;;;;;;4.25;2.03;;;;;;;;;;4915374;29;20075;-37
2021/10/11 19:07:44;;;;;;;4.00;1.77;;;;;;;;;;4915244;29;20490;-37
2021/10/11 19:10:11;;;;;;;2.38;1.75;;;;;;;;;;4915274;29;20020;-37
2021/10/11 19:12:36;;;;;;;3.13;1.75;;;;;;;;;;4915159;29;20039;-37
2021/10/11 19:15:02;;;;;;;3.50;2.00;;;;;;;;;;4915543;29;20024;-36
2021/10/11 19:17:27;;;;;;;3.50;1.88;;;;;;;;;;4915157;29;20048;-37
2021/10/11 19:19:53;;;;;;;4.65;2.60;;;;;;;;;;4915207;29;20024;-37
2021/10/11 19:22:18;;;;;;;7.18;2.30;;;;;;;;;;4914319;29;20032;-37
2021/10/11 19:24:44;;;;;;;7.60;1.95;;;;;;;;;;4915086;29;20467;-37
2021/10/11 19:27:10;;;;;;;2.83;2.00;;;;;;;;;;4915287;29;20048;-37
2021/10/11 19:29:35;;;;;;;6.22;1.83;;;;;;;;;;4915151;29;20039;-37
2021/10/11 19:32:03;;;;;;;3.17;2.10;;;;;;;;;;4914865;29;20059;-37
2021/10/11 19:34:31;;;;;;;3.20;2.20;;;;;;;;;;4914969;29;20040;-36
2021/10/11 19:36:58;;;;;;;2.05;1.70;;;;;;;;;;4915029;29;20106;-37
2021/10/11 19:39:23;;;;;;;3.95;2.15;;;;;;;;;;4914830;29;20067;-36
2021/10/11 19:41:49;;;;;;;5.32;1.98;;;;;;;;;;4915048;29;20112;-36
2021/10/11 19:44:14;;;;;;;3.38;1.95;;;;;;;;;;4913771;29;20130;-36
2021/10/11 19:46:40;;;;;;;2.65;2.08;;;;;;;;;;4915037;29;20485;-37
2021/10/11 19:49:07;;;;;;;2.55;1.63;;;;;;;;;;4915242;29;20032;-37
2021/10/11 19:51:33;;;;;;;2.60;1.70;;;;;;;;;;4914802;29;20042;-36
2021/10/11 19:53:59;;;;;;;3.75;2.30;;;;;;;;;;4913678;29;20032;-36
2021/10/11 19:56:25;;;;;;;2.95;1.60;;;;;;;;;;4914879;29;20035;-41
2021/10/11 19:58:50;;;;;;;2.92;1.85;;;;;;;;;;4915152;29;20462;-37
2021/10/11 20:01:16;;;;;;;7.95;2.40;;;;;;;;;;4914735;29;20420;-36
2021/10/11 20:03:42;;;;;;;3.13;1.85;;;;;;;;;;4913717;29;20024;-37